Terminal Aerodrome Forecast
Issued by NWS

Home | Current Version | Previous Version | Text Only | Print | Product List | Glossary On
Versions: 1 2 3 4 5 6 7 8 9 10 11 12 13 14 15 16 17 18 19 20 21 22 23 24
000
FTUS44 KLZK 262300
TAFADF
TAF
KADF 262329Z 2700/2724 06012KT P6SM BKN100
     FM270700 07010G25KT P6SM VCTS BKN040CB OVC120
     FM271200 08010G20KT 6SM SHRA VCTS BKN060CB=

USA.gov is the U.S. government's official web portal to all federal, state and local government web resources and services.